Time;durP1;ratioP1;P1;durP2;ratioP2;P2;SDS_P1;SDS_P2;PMS_P1;PMS_P2;Temp;Humidity;BMP_temperature;BMP_pressure;BME280_temperature;BME280_humidity;BME280_pressure;Samples;Min_cycle;Max_cycle;Signal;HPM_P1;HPM_P2
2022/08/05 00:01:48;;;;;;;2.45;1.63;;;29.40;51.30;;;;;;5040794;28;20512;-68
2022/08/05 00:04:14;;;;;;;2.10;1.50;;;29.50;51.30;;;;;;5041581;28;20045;-67
2022/08/05 00:06:40;;;;;;;2.25;1.50;;;29.50;51.30;;;;;;5040903;28;20115;-68
2022/08/05 00:09:05;;;;;;;2.22;1.40;;;29.50;51.20;;;;;;5041927;28;20060;-67
2022/08/05 00:11:31;;;;;;;2.60;1.60;;;29.50;51.20;;;;;;5045963;28;20049;-67
2022/08/05 00:13:57;;;;;;;2.30;1.58;;;29.50;51.10;;;;;;5060166;28;20032;-69
2022/08/05 00:16:22;;;;;;;2.10;1.40;;;29.50;51.10;;;;;;5075248;28;20025;-68
2022/08/05 00:18:48;;;;;;;2.20;1.60;;;29.60;51.10;;;;;;5059425;28;20021;-68
2022/08/05 00:21:16;;;;;;;2.50;1.55;;;29.60;51.10;;;;;;5070742;28;20039;-67
2022/08/05 00:23:43;;;;;;;2.75;1.70;;;29.60;51.00;;;;;;5070559;28;20029;-67
2022/08/05 00:26:10;;;;;;;3.03;1.80;;;29.60;50.90;;;;;;5063558;28;20051;-67
2022/08/05 00:28:36;;;;;;;2.38;1.63;;;29.60;51.10;;;;;;5065057;28;20028;-67
2022/08/05 00:31:02;;;;;;;3.00;1.70;;;29.70;51.40;;;;;;5060942;28;20079;-67
2022/08/05 00:33:27;;;;;;;3.35;1.90;;;29.80;51.30;;;;;;5059357;28;20025;-66
2022/08/05 00:35:53;;;;;;;2.72;1.90;;;29.80;51.40;;;;;;5061417;28;20057;-68
2022/08/05 00:38:19;;;;;;;3.17;1.98;;;29.90;51.50;;;;;;5062574;28;20040;-68
2022/08/05 00:40:47;;;;;;;2.70;1.83;;;29.90;51.20;;;;;;5061092;28;20047;-68
2022/08/05 00:43:13;;;;;;;3.42;2.05;;;29.90;51.10;;;;;;5059777;28;20540;-67
2022/08/05 00:45:39;;;;;;;3.53;2.03;;;30.00;51.20;;;;;;5060819;28;20155;-68
2022/08/05 00:48:06;;;;;;;3.25;1.92;;;30.00;51.10;;;;;;5060236;28;20082;-68
2022/08/05 00:50:32;;;;;;;2.90;1.85;;;30.10;51.20;;;;;;5058862;28;20472;-69
2022/08/05 00:52:58;;;;;;;3.78;2.13;;;30.10;50.80;;;;;;5060370;28;20025;-66
2022/08/05 00:55:23;;;;;;;3.45;2.00;;;30.10;50.90;;;;;;5060114;28;20147;-69
2022/08/05 00:57:49;;;;;;;2.85;1.75;;;30.10;50.70;;;;;;5060705;28;20025;-67
2022/08/05 01:00:14;;;;;;;2.38;1.70;;;30.20;51.00;;;;;;5059195;28;20419;-67
2022/08/05 01:02:40;;;;;;;2.90;1.90;;;30.10;50.60;;;;;;5061164;28;20051;-67
2022/08/05 01:05:06;;;;;;;2.95;1.95;;;30.20;50.50;;;;;;5058733;28;20078;-70
2022/08/05 01:07:32;;;;;;;3.05;1.88;;;30.20;50.60;;;;;;5059363;28;20032;-68
2022/08/05 01:09:58;;;;;;;3.80;1.80;;;30.30;50.40;;;;;;5060456;28;20098;-67
2022/08/05 01:12:24;;;;;;;2.60;1.80;;;30.30;50.40;;;;;;5065740;28;20048;-67
2022/08/05 01:15:00;;;;;;;2.70;1.80;;;30.30;50.20;;;;;;5063848;28;20083;-67
2022/08/05 01:17:37;;;;;;;2.80;1.60;;;30.30;50.00;;;;;;5062908;28;20040;-67
2022/08/05 01:20:12;;;;;;;2.67;1.60;;;30.20;49.90;;;;;;5063233;28;20033;-67
2022/08/05 01:22:49;;;;;;;2.08;1.50;;;30.20;49.90;;;;;;5064579;28;20107;-67
2022/08/05 01:25:41;;;;;;;2.38;1.65;;;30.20;50.00;;;;;;5063374;28;20047;-67
2022/08/05 01:28:26;;;;;;;2.58;1.70;;;30.20;49.90;;;;;;5039511;28;20040;-67
2022/08/05 01:31:10;;;;;;;2.35;1.52;;;30.10;49.90;;;;;;5063273;28;20032;-67
2022/08/05 01:33:45;;;;;;;2.40;1.67;;;30.10;49.90;;;;;;5064229;28;20117;-66
2022/08/05 01:36:15;;;;;;;2.25;1.45;;;30.10;50.00;;;;;;5063094;28;20013;-66
2022/08/05 01:38:44;;;;;;;1.95;1.40;;;30.10;50.00;;;;;;5061759;28;20480;-67
2022/08/05 01:41:12;;;;;;;2.08;1.58;;;30.00;49.90;;;;;;5061396;28;20043;-67
2022/08/05 01:43:38;;;;;;;2.65;1.67;;;30.00;50.00;;;;;;5063776;28;20123;-67
2022/08/05 01:46:04;;;;;;;2.83;1.80;;;30.00;50.00;;;;;;5062501;28;20484;-67
2022/08/05 01:48:32;;;;;;;1.95;1.50;;;30.00;50.00;;;;;;5064056;28;20047;-67
2022/08/05 01:50:58;;;;;;;2.40;1.67;;;30.00;50.00;;;;;;5062371;28;20417;-67
2022/08/05 01:53:26;;;;;;;2.17;1.50;;;30.00;50.10;;;;;;5063506;28;20039;-67
2022/08/05 01:55:54;;;;;;;3.08;1.60;;;30.00;50.00;;;;;;5063023;28;20064;-67
2022/08/05 01:58:23;;;;;;;2.33;1.42;;;30.00;50.00;;;;;;5063526;28;20028;-68
2022/08/05 02:00:50;;;;;;;2.50;1.55;;;30.00;50.00;;;;;;5062978;28;20506;-67
2022/08/05 02:03:24;;;;;;;2.03;1.40;;;29.90;50.00;;;;;;5063269;28;20123;-67
2022/08/05 02:05:53;;;;;;;2.33;1.67;;;29.90;49.90;;;;;;5063536;28;20044;-67
2022/08/05 02:08:19;;;;;;;1.95;1.30;;;29.90;49.90;;;;;;5061789;28;20025;-67
2022/08/05 02:10:50;;;;;;;2.63;1.48;;;29.90;50.00;;;;;;5062898;28;20032;-67
2022/08/05 02:13:27;;;;;;;2.13;1.60;;;29.90;50.00;;;;;;5062260;28;20024;-67
2022/08/05 02:16:04;;;;;;;2.55;1.55;;;29.90;49.90;;;;;;5063289;28;20492;-67
2022/08/05 02:18:36;;;;;;;2.55;1.50;;;29.90;49.90;;;;;;5063665;28;20028;-67
2022/08/05 02:21:08;;;;;;;2.60;1.55;;;29.90;49.90;;;;;;5061300;28;20024;-67
2022/08/05 02:23:38;;;;;;;1.90;1.40;;;29.90;49.90;;;;;;5059893;28;20464;-67
2022/08/05 02:26:06;;;;;;;1.90;1.30;;;29.80;49.80;;;;;;5061183;28;20036;-67
2022/08/05 02:28:35;;;;;;;1.95;1.40;;;29.80;49.80;;;;;;5063042;28;20021;-69
2022/08/05 02:31:15;;;;;;;1.98;1.42;;;29.80;49.80;;;;;;5075441;28;20400;-66
2022/08/05 02:33:55;;;;;;;2.20;1.30;;;29.80;49.80;;;;;;5061562;28;20025;-66
2022/08/05 02:36:23;;;;;;;2.22;1.60;;;29.80;49.80;;;;;;5061139;28;20452;-66
2022/08/05 02:38:51;;;;;;;2.20;1.40;;;29.70;49.80;;;;;;5062488;28;20064;-69
2022/08/05 02:41:18;;;;;;;2.08;1.40;;;29.70;49.70;;;;;;5060376;28;20059;-68
2022/08/05 02:43:47;;;;;;;1.52;1.13;;;29.70;49.80;;;;;;5061136;28;20047;-69
2022/08/05 02:46:16;;;;;;;1.90;1.20;;;29.70;49.80;;;;;;5062278;28;20029;-69
2022/08/05 02:48:44;;;;;;;2.05;1.30;;;29.70;49.80;;;;;;5061529;28;20028;-68
2022/08/05 02:51:11;;;;;;;2.20;1.50;;;29.70;49.80;;;;;;5063778;28;20112;-68
2022/08/05 02:53:38;;;;;;;2.17;1.40;;;29.70;49.80;;;;;;5063356;28;20028;-68
2022/08/05 02:56:05;;;;;;;1.45;1.13;;;29.60;49.70;;;;;;5060419;28;20384;-68
2022/08/05 02:58:32;;;;;;;1.83;1.38;;;29.60;49.70;;;;;;5060703;28;20103;-68
2022/08/05 03:01:01;;;;;;;1.90;1.40;;;29.60;49.70;;;;;;5062065;28;20033;-69
2022/08/05 03:03:28;;;;;;;1.98;1.30;;;29.60;49.70;;;;;;5060745;28;20025;-68
2022/08/05 03:05:54;;;;;;;1.77;1.13;;;29.60;49.70;;;;;;5062594;28;20032;-69
2022/08/05 03:08:21;;;;;;;1.90;1.30;;;29.60;49.70;;;;;;5062432;28;20032;-69
2022/08/05 03:10:47;;;;;;;1.48;1.27;;;29.60;49.80;;;;;;5060385;28;20337;-69
2022/08/05 03:13:17;;;;;;;1.40;1.15;;;29.50;49.70;;;;;;5061860;28;20051;-69
2022/08/05 03:15:44;;;;;;;1.90;1.30;;;29.50;49.70;;;;;;5062296;28;20099;-66
2022/08/05 03:18:10;;;;;;;2.10;1.38;;;29.50;49.70;;;;;;5061451;28;20530;-68
2022/08/05 03:20:35;;;;;;;1.40;1.20;;;29.50;48.10;;;;;;5061630;28;20025;-69
2022/08/05 03:23:03;;;;;;;2.45;1.40;;;29.40;47.30;;;;;;5061727;28;20028;-65
2022/08/05 03:25:29;;;;;;;2.78;1.40;;;29.30;46.60;;;;;;5061529;28;20495;-68
2022/08/05 03:27:56;;;;;;;1.95;1.63;;;29.30;46.10;;;;;;5061028;28;20041;-68
2022/08/05 03:30:23;;;;;;;2.50;1.50;;;29.20;45.80;;;;;;5060002;28;20058;-68
2022/08/05 03:32:49;;;;;;;2.45;1.60;;;29.20;45.80;;;;;;5061202;28;20502;-67
2022/08/05 03:35:15;;;;;;;3.10;1.60;;;29.10;46.10;;;;;;5060675;28;20017;-67
2022/08/05 03:37:40;;;;;;;3.92;1.70;;;29.10;45.40;;;;;;5061262;28;20380;-67
2022/08/05 03:40:08;;;;;;;3.45;1.75;;;29.10;45.50;;;;;;5060514;28;20028;-68
2022/08/05 03:42:34;;;;;;;2.65;1.77;;;29.00;45.30;;;;;;5059866;28;20078;-68
2022/08/05 03:45:00;;;;;;;2.92;2.00;;;29.00;44.80;;;;;;5062207;28;20057;-67
2022/08/05 03:47:26;;;;;;;2.90;2.10;;;28.90;45.10;;;;;;5061436;28;20025;-67
2022/08/05 03:49:51;;;;;;;2.95;2.08;;;28.80;45.20;;;;;;5059922;28;20119;-68
2022/08/05 03:52:23;;;;;;;3.05;1.83;;;28.70;45.00;;;;;;5061382;28;20024;-67
2022/08/05 03:54:56;;;;;;;2.75;1.85;;;28.70;45.30;;;;;;5060456;28;20033;-68
2022/08/05 03:57:28;;;;;;;5.13;2.10;;;28.60;45.60;;;;;;5059998;28;20132;-68
2022/08/05 04:00:03;;;;;;;2.63;1.77;;;28.60;45.50;;;;;;5061047;28;20031;-67
2022/08/05 04:02:31;;;;;;;1.70;1.30;;;28.50;45.60;;;;;;5061122;28;20024;-68
2022/08/05 04:05:01;;;;;;;3.47;1.75;;;28.50;45.60;;;;;;5059319;28;20361;-68
2022/08/05 04:07:28;;;;;;;2.05;1.45;;;28.40;45.80;;;;;;5060863;28;20020;-68
2022/08/05 04:09:54;;;;;;;2.13;1.60;;;28.40;46.00;;;;;;5059961;28;20120;-68
2022/08/05 04:12:21;;;;;;;2.17;1.80;;;28.40;46.00;;;;;;5061691;28;20048;-68
2022/08/05 04:14:47;;;;;;;3.22;2.42;;;28.20;45.80;;;;;;5062035;28;20040;-67
2022/08/05 04:17:13;;;;;;;3.58;2.10;;;27.90;46.40;;;;;;5061420;28;20055;-67
2022/08/05 04:19:43;;;;;;;2.65;2.00;;;27.80;46.90;;;;;;5059516;28;20086;-66
2022/08/05 04:22:10;;;;;;;3.45;2.20;;;27.80;46.70;;;;;;5059693;28;20100;-68
2022/08/05 04:24:40;;;;;;;2.78;2.10;;;27.60;46.90;;;;;;5059302;28;20432;-68
2022/08/05 04:27:05;;;;;;;2.85;1.75;;;27.60;47.30;;;;;;5059957;28;20217;-68
2022/08/05 04:29:31;;;;;;;2.53;1.80;;;27.50;47.40;;;;;;5059581;28;20139;-68
2022/08/05 04:31:56;;;;;;;2.42;1.77;;;27.50;47.50;;;;;;5060454;28;20387;-68
2022/08/05 04:34:22;;;;;;;3.90;2.00;;;27.50;47.50;;;;;;5060517;28;20040;-68
2022/08/05 04:36:48;;;;;;;3.20;2.00;;;27.60;47.50;;;;;;5059106;28;20418;-65
2022/08/05 04:39:13;;;;;;;4.22;2.45;;;27.50;47.30;;;;;;5060297;28;20033;-66
2022/08/05 04:41:39;;;;;;;3.13;2.10;;;27.20;48.00;;;;;;5060846;28;20479;-65
2022/08/05 04:44:05;;;;;;;2.90;1.98;;;27.10;48.30;;;;;;5059939;28;20060;-66
2022/08/05 04:46:31;;;;;;;4.10;2.00;;;27.10;48.40;;;;;;5063259;28;20020;-65
2022/08/05 04:48:56;;;;;;;2.42;1.77;;;27.10;48.60;;;;;;5063624;28;20476;-65
2022/08/05 04:51:22;;;;;;;3.90;2.20;;;27.10;48.60;;;;;;5065093;28;20036;-66
2022/08/05 04:53:47;;;;;;;4.30;2.40;;;27.00;48.90;;;;;;5063388;28;20476;-65
2022/08/05 04:56:13;;;;;;;4.68;2.30;;;26.90;49.20;;;;;;5065367;28;20033;-66
2022/08/05 04:58:39;;;;;;;4.32;2.38;;;26.70;49.70;;;;;;5063507;28;20036;-65
2022/08/05 05:01:05;;;;;;;2.63;1.90;;;26.70;49.90;;;;;;5063680;28;20032;-65
2022/08/05 05:03:31;;;;;;;2.92;2.00;;;26.70;49.80;;;;;;5063454;28;20079;-65
2022/08/05 05:05:56;;;;;;;3.20;1.88;;;26.70;50.00;;;;;;5065069;28;20032;-64
2022/08/05 05:08:22;;;;;;;5.45;2.40;;;26.70;50.00;;;;;;5063475;28;20128;-66
2022/08/05 05:10:47;;;;;;;3.45;2.42;;;26.70;50.40;;;;;;5063386;28;20029;-65
2022/08/05 05:13:15;;;;;;;3.80;2.20;;;26.60;50.90;;;;;;5063960;28;20068;-65
2022/08/05 05:15:41;;;;;;;3.47;2.25;;;26.60;51.00;;;;;;5063332;28;20021;-65
2022/08/05 05:18:08;;;;;;;4.55;2.78;;;26.60;52.20;;;;;;5062499;28;20577;-65
2022/08/05 05:20:34;;;;;;;3.67;2.50;;;26.50;52.60;;;;;;5064624;28;20024;-65
2022/08/05 05:23:03;;;;;;;3.75;2.90;;;26.50;52.80;;;;;;5064178;28;20399;-65
2022/08/05 05:25:29;;;;;;;7.18;2.90;;;26.50;53.00;;;;;;5061653;28;20017;-65
2022/08/05 05:27:55;;;;;;;5.18;2.50;;;26.50;52.70;;;;;;5063058;28;20040;-65
2022/08/05 05:30:21;;;;;;;4.07;2.70;;;26.50;52.70;;;;;;5062919;28;20095;-66
2022/08/05 05:32:47;;;;;;;3.85;2.50;;;26.50;52.70;;;;;;5063896;28;20032;-65
2022/08/05 05:35:12;;;;;;;2.78;2.20;;;26.50;52.50;;;;;;5062989;28;20020;-65
2022/08/05 05:37:50;;;;;;;3.88;2.42;;;26.50;52.50;;;;;;5063255;28;20029;-65
2022/08/05 05:40:21;;;;;;;2.80;2.17;;;26.60;52.60;;;;;;5061911;28;20021;-65
2022/08/05 05:42:48;;;;;;;3.78;2.85;;;26.50;52.40;;;;;;5061284;28;20028;-65
2022/08/05 05:45:14;;;;;;;5.05;2.70;;;26.50;52.90;;;;;;5064087;28;20381;-65
2022/08/05 05:47:40;;;;;;;3.38;2.60;;;26.40;53.00;;;;;;5062489;28;20025;-65
2022/08/05 05:50:12;;;;;;;5.45;2.83;;;26.40;53.20;;;;;;5063646;28;20432;-66
2022/08/05 05:52:38;;;;;;;3.40;2.47;;;26.40;53.30;;;;;;5063295;28;20033;-66
2022/08/05 05:55:07;;;;;;;2.75;2.20;;;26.40;53.30;;;;;;5061671;28;20104;-65
2022/08/05 05:57:33;;;;;;;4.35;2.15;;;26.40;53.20;;;;;;5061872;28;20040;-65
2022/08/05 05:59:59;;;;;;;3.85;2.20;;;26.40;53.20;;;;;;5064337;28;20044;-65
2022/08/05 06:02:25;;;;;;;3.25;2.47;;;26.40;53.20;;;;;;5063339;28;20025;-65
2022/08/05 06:04:50;;;;;;;3.13;2.67;;;26.30;53.60;;;;;;5063361;28;20103;-65
2022/08/05 06:07:16;;;;;;;3.70;2.90;;;26.20;53.70;;;;;;5063204;28;20029;-64
2022/08/05 06:09:41;;;;;;;4.50;2.92;;;26.20;53.90;;;;;;5062248;28;20035;-65
2022/08/05 06:12:07;;;;;;;3.78;2.63;;;26.10;53.90;;;;;;5062402;28;20496;-64
2022/08/05 06:14:33;;;;;;;3.90;2.75;;;26.00;53.80;;;;;;5063356;28;20032;-65
2022/08/05 06:16:59;;;;;;;4.43;2.72;;;26.00;54.10;;;;;;5062582;28;20462;-65
2022/08/05 06:19:26;;;;;;;4.25;2.63;;;25.90;54.10;;;;;;5062652;28;20036;-65
2022/08/05 06:21:51;;;;;;;4.22;2.88;;;25.90;54.20;;;;;;5062495;28;20552;-66
2022/08/05 06:24:18;;;;;;;3.83;3.00;;;25.90;54.60;;;;;;5062360;28;20020;-65
2022/08/05 06:26:44;;;;;;;5.60;3.25;;;25.90;53.90;;;;;;5060504;28;20040;-65
2022/08/05 06:29:09;;;;;;;2.60;2.30;;;25.90;54.00;;;;;;5062997;28;20387;-66
2022/08/05 06:31:36;;;;;;;4.32;2.60;;;25.90;53.70;;;;;;5063110;28;20040;-65
2022/08/05 06:34:01;;;;;;;2.85;2.17;;;25.90;53.50;;;;;;5063335;28;20527;-64
2022/08/05 06:36:27;;;;;;;3.38;2.35;;;26.00;53.50;;;;;;5063153;28;20092;-65
2022/08/05 06:38:53;;;;;;;2.88;2.00;;;26.00;53.50;;;;;;5062405;28;20021;-65
2022/08/05 06:41:20;;;;;;;2.90;2.20;;;26.00;53.30;;;;;;5061266;28;20461;-65
2022/08/05 06:43:46;;;;;;;2.15;1.80;;;26.10;53.30;;;;;;5063410;28;20127;-65
2022/08/05 06:46:11;;;;;;;2.05;1.85;;;26.10;53.10;;;;;;5062257;28;20068;-65
2022/08/05 06:48:37;;;;;;;2.65;2.03;;;26.10;53.50;;;;;;5063389;28;20363;-65
2022/08/05 06:51:03;;;;;;;2.78;1.85;;;26.10;52.90;;;;;;5061899;28;20447;-64
2022/08/05 06:53:29;;;;;;;2.58;1.70;;;26.20;52.80;;;;;;5061673;28;20037;-64
2022/08/05 06:55:59;;;;;;;2.40;1.90;;;26.20;52.70;;;;;;5063236;28;20136;-65
2022/08/05 06:58:26;;;;;;;2.20;1.70;;;26.20;52.60;;;;;;5061355;28;20387;-64
2022/08/05 07:00:52;;;;;;;2.30;1.80;;;26.20;52.60;;;;;;5062292;28;20108;-64
2022/08/05 07:03:17;;;;;;;1.92;1.63;;;26.20;52.40;;;;;;5061042;28;20108;-64
2022/08/05 07:05:44;;;;;;;2.50;1.70;;;26.20;52.40;;;;;;5062954;28;20029;-64
2022/08/05 07:08:09;;;;;;;1.95;1.60;;;26.20;52.30;;;;;;5062225;28;20144;-65
2022/08/05 07:10:35;;;;;;;2.20;1.70;;;26.30;52.30;;;;;;5060795;28;20127;-65
2022/08/05 07:18:29;;;;;;;2.22;1.67;;;26.30;52.10;;;;;;5060636;28;20112;-64
2022/08/05 07:20:55;;;;;;;2.50;1.70;;;26.30;52.10;;;;;;5061423;28;20100;-65
2022/08/05 07:23:20;;;;;;;2.20;1.65;;;26.30;52.10;;;;;;5062031;28;20086;-64
2022/08/05 07:25:46;;;;;;;2.08;1.48;;;26.30;52.10;;;;;;5061143;28;20492;-64
2022/08/05 07:28:12;;;;;;;2.40;1.80;;;26.40;52.20;;;;;;5060854;28;20395;-64
2022/08/05 07:30:38;;;;;;;2.58;1.90;;;26.40;52.10;;;;;;5060461;28;20039;-64
2022/08/05 07:33:06;;;;;;;2.92;1.77;;;26.40;52.10;;;;;;5061980;28;20432;-64
2022/08/05 07:35:32;;;;;;;2.70;1.63;;;26.30;52.00;;;;;;5061132;28;20357;-65
2022/08/05 07:37:57;;;;;;;2.38;1.80;;;26.40;52.10;;;;;;5061618;28;20081;-64
2022/08/05 07:40:23;;;;;;;2.10;1.77;;;26.40;52.00;;;;;;5061077;28;20021;-65
2022/08/05 07:42:48;;;;;;;2.40;1.63;;;26.40;52.00;;;;;;5062654;28;20510;-64
2022/08/05 07:45:14;;;;;;;2.63;1.65;;;26.40;52.00;;;;;;5060076;28;20108;-65
2022/08/05 07:47:41;;;;;;;2.20;1.60;;;26.40;52.00;;;;;;5062479;28;20024;-64
2022/08/05 07:50:07;;;;;;;2.40;1.83;;;26.40;51.90;;;;;;5059990;28;20193;-64
2022/08/05 07:52:42;;;;;;;2.50;1.77;;;26.40;51.90;;;;;;5061211;28;20444;-65
2022/08/05 07:55:08;;;;;;;1.77;1.40;;;26.50;51.90;;;;;;5059874;28;20488;-65
2022/08/05 07:57:35;;;;;;;2.88;1.67;;;26.40;51.80;;;;;;5060722;28;20047;-65
2022/08/05 08:00:02;;;;;;;2.72;1.80;;;26.50;51.90;;;;;;5060268;28;20028;-65
2022/08/05 08:02:28;;;;;;;3.00;1.58;;;26.50;51.90;;;;;;5059046;28;20318;-65
2022/08/05 08:04:55;;;;;;;2.50;1.70;;;26.50;51.80;;;;;;5061564;28;20043;-64
2022/08/05 08:07:20;;;;;;;2.20;1.50;;;26.50;51.80;;;;;;5059741;28;20017;-64
2022/08/05 08:09:47;;;;;;;1.92;1.55;;;26.50;51.80;;;;;;5061238;28;20039;-64
2022/08/05 08:12:14;;;;;;;2.15;1.52;;;26.60;52.40;;;;;;5060818;28;20049;-65
2022/08/05 08:14:40;;;;;;;1.95;1.60;;;26.50;51.70;;;;;;5061054;28;20056;-65
2022/08/05 08:17:12;;;;;;;2.22;1.60;;;26.50;51.70;;;;;;5061500;28;20074;-65
2022/08/05 08:19:39;;;;;;;2.17;1.60;;;26.50;51.70;;;;;;5061051;28;20127;-64
2022/08/05 08:22:06;;;;;;;2.40;1.55;;;26.60;51.70;;;;;;5061658;28;20068;-63
2022/08/05 08:24:32;;;;;;;2.40;1.52;;;26.60;51.70;;;;;;5059383;28;20026;-65
2022/08/05 08:26:57;;;;;;;2.70;1.50;;;26.60;51.70;;;;;;5061710;28;20507;-65
2022/08/05 08:29:23;;;;;;;2.20;1.70;;;26.60;51.70;;;;;;5059438;28;20033;-65
2022/08/05 08:31:49;;;;;;;1.92;1.58;;;26.60;51.70;;;;;;5061414;28;20029;-65
2022/08/05 08:34:16;;;;;;;2.20;1.63;;;26.60;51.70;;;;;;5059649;28;20029;-64
2022/08/05 08:36:42;;;;;;;2.97;1.80;;;26.60;51.70;;;;;;5061182;28;20107;-64
2022/08/05 08:39:08;;;;;;;2.42;1.80;;;26.60;51.70;;;;;;5059653;28;20107;-64
2022/08/05 08:41:36;;;;;;;2.45;1.80;;;26.60;51.60;;;;;;5061097;28;20029;-64
2022/08/05 08:44:02;;;;;;;2.00;1.60;;;26.60;51.60;;;;;;5058431;28;20036;-65
2022/08/05 08:46:30;;;;;;;2.13;1.67;;;26.60;51.60;;;;;;5049249;28;20726;-65
2022/08/05 08:48:57;;;;;;;2.03;1.50;;;26.60;51.60;;;;;;5057652;28;20039;-65
2022/08/05 08:51:26;;;;;;;2.50;1.77;;;26.70;51.60;;;;;;5060115;28;20058;-65
2022/08/05 08:53:52;;;;;;;3.10;1.80;;;26.70;51.60;;;;;;5041301;28;20029;-65
2022/08/05 08:56:19;;;;;;;2.08;1.67;;;26.70;52.10;;;;;;5061012;28;20028;-65
2022/08/05 08:58:45;;;;;;;2.55;1.67;;;26.60;51.50;;;;;;5061004;28;20021;-65
2022/08/05 09:01:12;;;;;;;2.10;1.50;;;26.70;51.60;;;;;;5058934;28;20377;-65
2022/08/05 09:03:39;;;;;;;2.28;1.95;;;26.70;51.50;;;;;;5060629;28;20091;-65
2022/08/05 09:06:05;;;;;;;2.20;1.67;;;26.70;51.50;;;;;;5061080;28;20112;-65
2022/08/05 09:08:30;;;;;;;2.38;1.67;;;26.70;51.50;;;;;;5059852;28;20060;-65
2022/08/05 09:10:57;;;;;;;2.28;1.65;;;26.70;51.50;;;;;;5059988;28;20039;-65
2022/08/05 09:13:22;;;;;;;1.92;1.58;;;26.70;51.50;;;;;;5058798;28;20024;-65
2022/08/05 09:15:48;;;;;;;3.42;1.50;;;26.70;51.50;;;;;;5060264;28;20036;-65
2022/08/05 09:18:14;;;;;;;2.15;1.70;;;26.70;51.40;;;;;;5057909;28;20520;-65
2022/08/05 09:20:42;;;;;;;1.92;1.42;;;26.70;51.40;;;;;;5060614;28;20100;-65
2022/08/05 09:23:10;;;;;;;2.00;1.50;;;26.80;51.50;;;;;;5060726;28;20440;-65
2022/08/05 09:25:38;;;;;;;2.65;1.50;;;26.80;51.50;;;;;;5058990;28;20610;-64
2022/08/05 09:28:23;;;;;;;3.05;1.40;;;26.80;51.50;;;;;;5058905;28;20443;-65
2022/08/05 09:30:54;;;;;;;2.83;1.70;;;26.80;51.50;;;;;;5059694;28;20029;-65
2022/08/05 09:33:21;;;;;;;2.10;1.60;;;26.80;51.40;;;;;;5061183;28;20035;-65
2022/08/05 09:36:04;;;;;;;2.20;1.50;;;26.80;51.40;;;;;;5063252;28;20031;-65
2022/08/05 09:38:30;;;;;;;2.25;1.40;;;26.80;51.40;;;;;;5063079;28;20427;-64
2022/08/05 09:41:08;;;;;;;2.20;1.55;;;26.80;51.40;;;;;;5062461;28;20028;-65
2022/08/05 09:43:36;;;;;;;2.10;1.60;;;26.80;51.30;;;;;;5063605;28;20029;-64
2022/08/05 09:46:05;;;;;;;2.50;1.60;;;26.80;51.30;;;;;;5062810;28;20036;-65
2022/08/05 09:48:32;;;;;;;;;;;26.80;51.30;;;;;;5065322;28;20415;-65
2022/08/05 09:50:57;;;;;;;3.17;1.70;;;26.80;51.40;;;;;;5063937;28;20283;-64
2022/08/05 09:53:23;;;;;;;1.90;1.50;;;26.80;51.30;;;;;;5063125;28;20137;-65
2022/08/05 09:55:58;;;;;;;1.80;1.50;;;26.80;51.30;;;;;;5063922;28;20017;-65
2022/08/05 09:58:24;;;;;;;1.70;1.45;;;26.80;51.30;;;;;;5060361;28;20033;-65
2022/08/05 10:00:58;;;;;;;2.15;1.40;;;26.80;51.30;;;;;;5062339;28;20036;-65
2022/08/05 10:03:24;;;;;;;2.17;1.50;;;26.80;51.30;;;;;;5062335;28;20481;-65
2022/08/05 10:06:19;;;;;;;1.90;1.50;;;26.80;51.20;;;;;;5062326;28;20027;-65
2022/08/05 10:08:45;;;;;;;1.80;1.38;;;26.80;51.20;;;;;;5046325;28;20500;-65
2022/08/05 10:11:15;;;;;;;2.67;1.55;;;26.80;51.20;;;;;;5062862;28;20037;-65
2022/08/05 10:13:42;;;;;;;1.90;1.40;;;26.90;51.30;;;;;;5062508;28;20152;-65
2022/08/05 10:16:32;;;;;;;2.58;1.50;;;26.90;51.20;;;;;;5062984;28;20518;-65
2022/08/05 10:18:59;;;;;;;2.08;1.50;;;26.90;51.20;;;;;;5060500;28;20021;-65
2022/08/05 10:21:25;;;;;;;2.03;1.58;;;26.90;51.20;;;;;;5062393;28;20028;-65
2022/08/05 10:23:53;;;;;;;2.33;1.60;;;26.90;51.20;;;;;;5062112;28;20485;-64
2022/08/05 10:26:19;;;;;;;1.90;1.50;;;26.90;51.10;;;;;;5063607;28;20052;-65
2022/08/05 10:28:46;;;;;;;2.13;1.50;;;26.90;51.10;;;;;;5061140;28;20063;-66
2022/08/05 10:31:14;;;;;;;2.75;1.55;;;26.90;51.10;;;;;;5062989;28;20403;-65
2022/08/05 10:33:40;;;;;;;1.75;1.40;;;26.90;51.10;;;;;;5061217;28;20036;-65
2022/08/05 10:36:06;;;;;;;2.53;1.40;;;26.90;51.10;;;;;;5061783;28;20030;-64
2022/08/05 10:38:34;;;;;;;1.63;1.40;;;26.90;51.00;;;;;;5062779;28;20115;-65
2022/08/05 10:41:11;;;;;;;1.90;1.40;;;27.00;51.10;;;;;;5062517;28;20092;-65
2022/08/05 10:43:43;;;;;;;1.70;1.30;;;27.00;51.10;;;;;;5061650;28;20107;-65
2022/08/05 10:46:11;;;;;;;1.73;1.30;;;27.00;51.10;;;;;;5061543;28;20075;-65
2022/08/05 10:48:37;;;;;;;2.35;1.20;;;27.00;51.00;;;;;;5062340;28;20108;-64
2022/08/05 10:51:12;;;;;;;1.95;1.40;;;27.00;51.00;;;;;;5062746;28;20093;-65
2022/08/05 10:53:39;;;;;;;2.10;1.40;;;27.00;51.00;;;;;;5061596;28;20029;-65
2022/08/05 10:56:14;;;;;;;1.95;1.40;;;27.00;50.90;;;;;;5062460;28;20521;-65
2022/08/05 10:58:52;;;;;;;3.55;1.35;;;27.00;50.90;;;;;;5062560;28;20055;-65
2022/08/05 11:01:30;;;;;;;1.83;1.40;;;27.00;50.80;;;;;;5061132;28;20365;-65
2022/08/05 11:04:22;;;;;;;1.65;1.30;;;27.00;50.80;;;;;;5061418;28;20048;-65
2022/08/05 11:07:17;;;;;;;1.48;1.20;;;27.00;50.80;;;;;;5054046;28;21107;-65
2022/08/05 11:09:47;;;;;;;1.50;1.20;;;27.00;50.80;;;;;;5059651;28;20037;-65
2022/08/05 11:12:35;;;;;;;1.92;1.20;;;27.00;50.80;;;;;;5061236;28;20230;-64
2022/08/05 11:15:08;;;;;;;1.55;1.20;;;27.00;50.80;;;;;;5061870;28;20056;-65
2022/08/05 11:17:37;;;;;;;2.22;1.40;;;27.00;50.70;;;;;;5062009;28;20025;-65
2022/08/05 11:20:04;;;;;;;;;;;27.00;50.70;;;;;;5061867;28;20472;-66
2022/08/05 11:22:47;;;;;;;1.90;1.38;;;27.10;50.70;;;;;;5060728;28;19912;-65
2022/08/05 11:25:32;;;;;;;1.90;1.30;;;27.10;50.80;;;;;;5061454;28;20040;-65
2022/08/05 11:28:10;;;;;;;1.38;1.20;;;27.10;50.70;;;;;;5062330;28;20483;-65
2022/08/05 11:30:54;;;;;;;1.50;1.10;;;27.10;50.70;;;;;;5060742;28;20507;-68
2022/08/05 11:33:50;;;;;;;1.85;1.33;;;27.10;50.70;;;;;;5060424;28;20028;-65
2022/08/05 11:36:18;;;;;;;1.48;1.20;;;27.10;50.60;;;;;;5058946;28;20040;-68
2022/08/05 11:38:43;;;;;;;1.60;1.20;;;27.10;50.60;;;;;;5061999;28;20021;-67
2022/08/05 11:41:15;;;;;;;1.20;1.10;;;27.10;50.60;;;;;;5060593;28;20031;-68
2022/08/05 11:44:10;;;;;;;1.75;1.20;;;27.10;50.60;;;;;;5061852;28;20025;-68
2022/08/05 11:46:37;;;;;;;1.80;1.30;;;27.10;50.60;;;;;;5060610;28;20115;-67
2022/08/05 11:49:05;;;;;;;1.50;1.20;;;27.10;50.60;;;;;;5059711;28;20528;-65
2022/08/05 11:51:31;;;;;;;1.60;1.30;;;27.10;50.60;;;;;;5061390;28;20078;-65
2022/08/05 11:54:49;;;;;;;1.50;1.30;;;27.10;50.60;;;;;;5061516;28;20369;-68
2022/08/05 11:57:16;;;;;;;1.20;1.10;;;27.10;50.60;;;;;;5060413;28;20424;-68
2022/08/05 11:59:42;;;;;;;1.65;1.20;;;27.20;51.20;;;;;;5061856;28;20029;-68
2022/08/05 12:02:08;;;;;;;1.60;1.30;;;27.20;50.70;;;;;;5059266;28;20563;-67
2022/08/05 12:04:44;;;;;;;1.88;1.20;;;27.20;50.70;;;;;;5061967;28;20040;-68
2022/08/05 12:07:12;;;;;;;1.40;1.10;;;27.20;50.70;;;;;;5060198;28;20035;-67
2022/08/05 12:09:40;;;;;;;1.65;1.20;;;27.20;50.70;;;;;;5061437;28;20046;-67
2022/08/05 12:12:07;;;;;;;1.45;1.02;;;27.20;50.70;;;;;;5061025;28;20530;-68
2022/08/05 12:14:42;;;;;;;1.60;1.27;;;27.20;50.70;;;;;;5060548;28;20155;-68
2022/08/05 12:17:12;;;;;;;1.55;1.20;;;27.20;50.70;;;;;;5059741;28;20021;-65
2022/08/05 12:19:49;;;;;;;1.40;1.10;;;27.20;50.70;;;;;;5059726;28;20044;-68
2022/08/05 12:22:18;;;;;;;1.33;1.10;;;27.20;50.70;;;;;;5059645;28;20025;-68
2022/08/05 12:24:47;;;;;;;1.30;1.08;;;27.20;50.70;;;;;;5041939;28;20539;-68
2022/08/05 12:27:26;;;;;;;2.10;1.40;;;27.20;50.70;;;;;;5059630;28;20036;-68
2022/08/05 12:30:09;;;;;;;1.30;1.20;;;27.20;50.70;;;;;;5059706;28;20041;-68
2022/08/05 12:32:44;;;;;;;2.10;1.20;;;27.20;50.70;;;;;;5060549;28;20044;-67
2022/08/05 12:35:10;;;;;;;1.30;1.10;;;27.20;50.70;;;;;;5060840;28;20117;-68
2022/08/05 12:37:37;;;;;;;1.65;1.20;;;27.20;50.70;;;;;;5059313;28;20127;-68
2022/08/05 12:40:08;;;;;;;1.30;1.00;;;27.20;50.70;;;;;;5061420;28;20029;-66
2022/08/05 12:42:35;;;;;;;1.65;1.27;;;27.30;50.80;;;;;;5040620;28;20473;-67
2022/08/05 12:45:10;;;;;;;1.45;1.23;;;27.20;50.70;;;;;;5059260;28;20054;-66
2022/08/05 12:47:37;;;;;;;1.75;1.30;;;27.30;50.80;;;;;;5058283;28;20025;-66
2022/08/05 12:50:16;;;;;;;1.58;1.20;;;27.30;50.80;;;;;;5060006;28;20053;-68
2022/08/05 12:52:52;;;;;;;;;;;27.20;50.70;;;;;;5061297;28;20028;-68
2022/08/05 12:55:23;;;;;;;1.50;1.17;;;27.30;50.70;;;;;;5059823;28;19904;-68
2022/08/05 12:57:50;;;;;;;1.35;1.15;;;27.30;50.70;;;;;;5059647;28;20029;-68
2022/08/05 13:00:21;;;;;;;1.50;1.13;;;27.30;50.70;;;;;;5060097;28;20021;-68
2022/08/05 13:02:47;;;;;;;1.23;1.10;;;27.30;50.70;;;;;;5059400;28;20021;-68